createdAt,value
2018-04-19T00:01:05.272Z,11.40
2018-04-19T00:03:35.594Z,11.40
2018-04-19T00:06:06.846Z,11.60
2018-04-19T00:08:36.940Z,11.60
2018-04-19T00:11:06.592Z,11.60
2018-04-19T00:13:36.888Z,11.60
2018-04-19T00:16:06.783Z,11.70
2018-04-19T00:18:37.299Z,11.90
2018-04-19T00:21:06.730Z,12.00
2018-04-19T00:23:37.042Z,12.00
2018-04-19T00:26:06.934Z,12.00
2018-04-19T00:28:37.742Z,12.30
2018-04-19T00:31:07.847Z,12.30
2018-04-19T00:33:38.127Z,12.40
2018-04-19T00:36:08.252Z,12.40
2018-04-19T00:38:38.344Z,12.50
2018-04-19T00:41:09.187Z,12.60
2018-04-19T00:43:39.487Z,12.70
2018-04-19T00:46:09.592Z,12.50
2018-04-19T00:48:39.682Z,12.50
2018-04-19T00:51:09.975Z,12.50
2018-04-19T00:53:40.283Z,12.40
2018-04-19T00:56:10.590Z,12.30
2018-04-19T00:58:40.698Z,12.20
2018-04-19T01:01:10.810Z,12.10
2018-04-19T01:03:40.916Z,12.10
2018-04-19T01:06:11.229Z,12.00
2018-04-19T01:08:41.604Z,12.00
2018-04-19T01:11:12.495Z,12.20
2018-04-19T01:13:42.804Z,12.20
2018-04-19T01:16:13.091Z,12.30
2018-04-19T01:18:43.395Z,12.30
2018-04-19T01:21:14.039Z,12.40
2018-04-19T01:23:43.993Z,12.40
2018-04-19T01:26:13.581Z,12.50
2018-04-19T01:28:43.912Z,12.40
2018-04-19T01:31:14.217Z,12.50
2018-04-19T01:33:44.334Z,12.40
2018-04-19T01:36:26.058Z,12.40
2018-04-19T01:38:55.916Z,12.40
2018-04-19T01:41:26.011Z,12.40
2018-04-19T01:43:56.815Z,12.20
2018-04-19T01:46:27.211Z,12.10
2018-04-19T01:48:58.064Z,12.10
2018-04-19T01:51:28.941Z,12.10
2018-04-19T01:53:59.672Z,12.10
2018-04-19T01:56:29.798Z,12.10
2018-04-19T01:59:00.116Z,12.10
2018-04-19T02:01:30.417Z,12.20
2018-04-19T02:04:00.517Z,12.20
2018-04-19T02:06:30.641Z,12.10
2018-04-19T02:09:01.515Z,12.10
2018-04-19T02:11:32.004Z,12.00
2018-04-19T02:14:02.100Z,12.00
2018-04-19T02:16:32.982Z,11.80
2018-04-19T02:19:04.133Z,11.80
2018-04-19T02:21:34.682Z,11.80
2018-04-19T02:24:05.083Z,11.70
2018-04-19T02:26:36.136Z,11.60
2018-04-19T02:29:06.419Z,11.70
2018-04-19T02:31:36.575Z,11.60
2018-04-19T02:34:06.891Z,11.60
2018-04-19T02:36:37.182Z,11.50
2018-04-19T02:39:06.884Z,11.40
2018-04-19T02:41:37.188Z,11.20
2018-04-19T02:44:08.062Z,11.10
2018-04-19T02:46:39.140Z,11.00
2018-04-19T02:49:09.232Z,11.00
2018-04-19T02:51:39.534Z,11.10
2018-04-19T02:54:10.404Z,10.90
2018-04-19T02:56:41.245Z,10.90
2018-04-19T02:59:11.342Z,10.80
2018-04-19T03:01:41.659Z,11.00
2018-04-19T03:04:12.515Z,11.30
2018-04-19T03:06:42.531Z,11.30
2018-04-19T03:09:12.831Z,11.50
2018-04-19T03:11:42.944Z,11.60
2018-04-19T03:14:13.244Z,11.60
2018-04-19T03:16:43.543Z,11.70
2018-04-19T03:19:14.086Z,11.80
2018-04-19T03:21:44.390Z,11.90
2018-04-19T03:24:14.519Z,11.90
2018-04-19T03:26:45.420Z,11.70
2018-04-19T03:29:15.508Z,11.70
2018-04-19T03:31:45.614Z,11.60
2018-04-19T03:34:15.722Z,11.60
2018-04-19T03:36:45.820Z,11.60
2018-04-19T03:39:16.700Z,11.60
2018-04-19T03:41:47.743Z,11.60
2018-04-19T03:44:18.097Z,11.50
2018-04-19T03:46:48.184Z,11.50
2018-04-19T03:49:18.069Z,11.20
2018-04-19T03:51:48.164Z,11.30
2018-04-19T03:54:18.268Z,11.10
2018-04-19T03:56:48.388Z,11.00
2018-04-19T03:59:19.480Z,11.10
2018-04-19T04:01:49.580Z,11.10
2018-04-19T04:04:20.418Z,11.00
2018-04-19T04:06:50.735Z,11.00
2018-04-19T04:09:21.022Z,11.10
2018-04-19T04:11:51.349Z,10.90
2018-04-19T04:14:21.883Z,10.80
2018-04-19T04:17:08.959Z,10.70
2018-04-19T04:19:55.668Z,10.60
2018-04-19T04:22:42.481Z,10.40
2018-04-19T04:25:12.610Z,10.20
2018-04-19T04:27:42.494Z,10.00
2018-04-19T04:30:13.540Z,10.00
2018-04-19T04:32:44.427Z,9.90
2018-04-19T04:35:14.336Z,9.90
2018-04-19T04:37:44.622Z,10.10
2018-04-19T04:40:14.911Z,10.10
2018-04-19T04:42:45.503Z,10.20
2018-04-19T04:45:16.387Z,10.30
2018-04-19T04:47:46.560Z,10.30
2018-04-19T04:50:17.631Z,10.50
2018-04-19T04:52:47.915Z,10.40
2018-04-19T04:55:18.006Z,10.60
2018-04-19T04:57:48.147Z,10.60
2018-04-19T05:00:19.175Z,10.80
2018-04-19T05:02:49.296Z,10.80
2018-04-19T05:05:19.387Z,11.00
2018-04-19T05:07:50.012Z,11.30
2018-04-19T05:10:20.389Z,11.30
2018-04-19T05:12:51.461Z,11.50
2018-04-19T05:15:22.031Z,11.40
2018-04-19T05:17:52.917Z,11.60
2018-04-19T05:20:22.968Z,11.60
2018-04-19T05:22:53.219Z,11.70
2018-04-19T05:25:23.314Z,11.90
2018-04-19T05:27:53.406Z,12.10
2018-04-19T05:30:23.668Z,12.30
2018-04-19T05:32:53.796Z,12.50
2018-04-19T05:35:23.924Z,12.60
2018-04-19T05:37:54.966Z,12.80
2018-04-19T05:40:25.339Z,12.80
2018-04-19T05:42:55.623Z,12.90
2018-04-19T05:45:25.716Z,13.00
2018-04-19T05:47:56.030Z,13.10
2018-04-19T05:50:26.132Z,13.30
2018-04-19T05:52:56.426Z,13.40
2018-04-19T05:55:26.704Z,13.80
2018-04-19T05:57:57.584Z,14.60
2018-04-19T06:00:27.876Z,14.60
2018-04-19T06:02:58.013Z,15.00
2018-04-19T06:05:28.294Z,15.40
2018-04-19T06:07:58.616Z,15.50
2018-04-19T06:10:28.728Z,15.60
2018-04-19T06:12:58.862Z,15.70
2018-04-19T06:15:28.963Z,15.80
2018-04-19T06:17:59.055Z,15.90
2018-04-19T06:20:29.149Z,15.90
2018-04-19T06:22:59.282Z,16.00
2018-04-19T06:25:29.066Z,16.10
2018-04-19T06:28:00.162Z,16.40
2018-04-19T06:30:30.467Z,16.40
2018-04-19T06:33:00.563Z,16.60
2018-04-19T06:35:30.677Z,17.00
2018-04-19T06:38:01.347Z,17.30
2018-04-19T06:40:32.020Z,17.60
2018-04-19T06:43:02.859Z,17.80
2018-04-19T06:45:33.731Z,18.10
2018-04-19T06:48:04.446Z,18.60
2018-04-19T06:50:36.104Z,18.90
2018-04-19T06:53:06.822Z,18.80
2018-04-19T06:55:38.580Z,19.20
2018-04-19T06:58:09.261Z,19.50
2018-04-19T07:00:40.670Z,19.60
2018-04-19T07:03:11.531Z,19.60
2018-04-19T07:05:42.200Z,19.20
2018-04-19T07:08:13.068Z,19.10
2018-04-19T07:10:43.723Z,19.30
2018-04-19T07:13:14.471Z,19.50
2018-04-19T07:15:45.113Z,19.50
2018-04-19T07:18:15.795Z,19.80
2018-04-19T07:20:46.426Z,20.10
2018-04-19T07:23:18.314Z,20.20
2018-04-19T07:25:49.210Z,20.20
2018-04-19T07:28:20.031Z,20.40
2018-04-19T07:30:51.388Z,20.20
2018-04-19T07:33:22.785Z,20.20
2018-04-19T07:35:53.627Z,20.20
2018-04-19T07:38:24.263Z,20.00
2018-04-19T07:40:55.120Z,20.00
2018-04-19T07:43:25.971Z,20.20
2018-04-19T07:45:56.396Z,20.40
2018-04-19T07:48:27.992Z,20.30
2018-04-19T07:50:58.600Z,20.30
2018-04-19T07:53:29.423Z,20.50
2018-04-19T07:56:00.252Z,20.60
2018-04-19T07:58:31.857Z,21.00
2018-04-19T08:01:02.715Z,20.90
2018-04-19T08:03:33.334Z,20.90
2018-04-19T08:06:04.249Z,21.10
2018-04-19T08:08:35.109Z,21.20
2018-04-19T08:11:05.950Z,21.20
2018-04-19T08:13:37.066Z,21.20
2018-04-19T08:16:07.688Z,21.30
2018-04-19T08:18:38.007Z,21.00
2018-04-19T08:21:09.123Z,21.00
2018-04-19T08:23:39.957Z,21.00
2018-04-19T08:26:10.795Z,21.00
2018-04-19T08:28:41.651Z,20.90
2018-04-19T08:31:12.482Z,20.60
2018-04-19T08:33:43.335Z,20.40
2018-04-19T08:36:13.962Z,20.50
2018-04-19T08:38:45.387Z,21.00
2018-04-19T08:41:15.800Z,20.90
2018-04-19T08:43:47.192Z,21.40
2018-04-19T08:46:17.815Z,21.30
2018-04-19T08:48:48.466Z,21.50
2018-04-19T08:51:19.311Z,21.60
2018-04-19T08:53:50.156Z,21.30
2018-04-19T08:56:20.773Z,21.40
2018-04-19T08:58:52.371Z,21.60
2018-04-19T09:01:23.196Z,21.70
2018-04-19T09:03:54.606Z,21.70
2018-04-19T09:06:25.459Z,21.60
2018-04-19T09:08:56.098Z,22.00
2018-04-19T09:11:27.514Z,23.00
2018-04-19T09:13:58.372Z,23.00
2018-04-19T09:16:29.186Z,23.10
2018-04-19T09:19:00.583Z,23.30
2018-04-19T09:21:31.432Z,23.30
2018-04-19T09:24:02.075Z,23.30
2018-04-19T09:26:32.913Z,23.20
2018-04-19T09:29:03.771Z,23.20
2018-04-19T09:31:34.897Z,23.40
2018-04-19T09:34:07.258Z,23.70
2018-04-19T09:36:37.854Z,23.70
2018-04-19T09:39:08.695Z,23.70
2018-04-19T09:41:39.559Z,23.80
2018-04-19T09:44:10.984Z,23.80
2018-04-19T09:46:41.812Z,23.80
2018-04-19T09:49:12.805Z,23.90
2018-04-19T09:51:44.381Z,23.90
2018-04-19T09:54:14.849Z,23.90
2018-04-19T09:56:45.634Z,24.30
2018-04-19T09:59:16.615Z,24.30
2018-04-19T10:01:51.935Z,24.60
2018-04-19T10:04:27.917Z,24.70
2018-04-19T10:06:58.544Z,24.60
2018-04-19T10:09:29.941Z,25.30
2018-04-19T10:12:01.595Z,25.50
2018-04-19T10:14:32.412Z,25.50
2018-04-19T10:17:03.040Z,25.60
2018-04-19T10:19:33.638Z,25.80
2018-04-19T10:22:04.289Z,26.10
2018-04-19T10:24:34.826Z,26.00
2018-04-19T10:27:04.773Z,26.30
2018-04-19T10:29:35.587Z,26.30
2018-04-19T10:32:06.419Z,26.50
2018-04-19T10:34:37.042Z,26.30
2018-04-19T10:37:08.337Z,26.30
2018-04-19T10:39:38.746Z,26.40
2018-04-19T10:42:09.146Z,26.60
2018-04-19T10:44:40.670Z,26.60
2018-04-19T10:47:11.546Z,26.40
2018-04-19T10:49:42.185Z,26.60
2018-04-19T10:52:13.571Z,26.90
2018-04-19T10:54:44.418Z,26.90
2018-04-19T10:57:15.235Z,27.20
2018-04-19T10:59:46.091Z,27.20
2018-04-19T11:02:16.927Z,27.30
2018-04-19T11:04:47.762Z,27.60
2018-04-19T11:07:18.596Z,27.50
2018-04-19T11:09:49.699Z,27.30
2018-04-19T11:12:21.244Z,28.40
2018-04-19T11:14:52.643Z,28.10
2018-04-19T11:17:23.554Z,28.10
2018-04-19T11:19:54.963Z,28.00
2018-04-19T11:22:25.608Z,28.00
2018-04-19T11:24:56.232Z,27.70
2018-04-19T11:27:27.644Z,27.60
2018-04-19T11:29:58.489Z,27.60
2018-04-19T11:32:29.315Z,27.90
2018-04-19T11:34:59.874Z,28.20
2018-04-19T11:37:30.220Z,28.50
2018-04-19T11:40:01.362Z,28.80
2018-04-19T11:42:31.912Z,28.80
2018-04-19T11:45:02.502Z,29.00
2018-04-19T11:47:32.819Z,28.80
2018-04-19T11:50:03.435Z,29.10
2018-04-19T11:52:34.279Z,28.60
2018-04-19T11:55:04.624Z,28.50
2018-04-19T11:57:35.163Z,28.80
2018-04-19T12:00:04.515Z,29.00
2018-04-19T12:02:34.858Z,29.30
2018-04-19T12:05:05.106Z,29.20
2018-04-19T12:07:35.676Z,29.10
2018-04-19T12:10:05.859Z,29.20
2018-04-19T12:12:36.511Z,29.20
2018-04-19T12:15:06.872Z,29.40
2018-04-19T12:17:37.746Z,29.60
2018-04-19T12:20:08.069Z,29.50
2018-04-19T12:22:39.401Z,29.90
2018-04-19T12:25:10.998Z,29.80
2018-04-19T12:27:41.543Z,29.70
2018-04-19T12:30:12.149Z,29.60
2018-04-19T12:32:42.287Z,29.90
2018-04-19T12:35:12.604Z,30.10
2018-04-19T12:37:43.010Z,30.40
2018-04-19T12:40:14.505Z,30.60
2018-04-19T12:42:44.865Z,30.50
2018-04-19T12:45:15.223Z,30.30
2018-04-19T12:47:45.543Z,30.20
2018-04-19T12:50:16.831Z,29.90
2018-04-19T12:52:47.375Z,29.90
2018-04-19T12:55:17.722Z,29.90
2018-04-19T12:57:49.044Z,30.40
2018-04-19T13:00:19.848Z,30.40
2018-04-19T13:02:50.411Z,30.20
2018-04-19T13:05:21.520Z,29.70
2018-04-19T13:07:52.076Z,29.60
2018-04-19T13:10:22.636Z,29.50
2018-04-19T13:12:53.015Z,29.80
2018-04-19T13:15:23.563Z,29.90
2018-04-19T13:17:53.941Z,30.20
2018-04-19T13:20:24.251Z,29.80
2018-04-19T13:22:54.617Z,29.20
2018-04-19T13:25:24.969Z,29.20
2018-04-19T13:27:55.329Z,29.30
2018-04-19T13:30:26.151Z,29.00
2018-04-19T13:32:56.836Z,28.40
2018-04-19T13:35:27.708Z,28.10
2018-04-19T13:37:58.543Z,28.10
2018-04-19T13:40:29.254Z,27.80
2018-04-19T13:42:59.914Z,27.80
2018-04-19T13:45:30.566Z,27.90
2018-04-19T13:48:01.711Z,28.40
2018-04-19T13:50:32.590Z,28.30
2018-04-19T13:53:03.215Z,28.50
2018-04-19T13:55:33.861Z,28.20
2018-04-19T13:58:04.502Z,27.90
2018-04-19T14:00:35.397Z,27.90
2018-04-19T14:03:07.036Z,27.50
2018-04-19T14:05:37.660Z,27.50
2018-04-19T14:08:08.391Z,27.80
2018-04-19T14:10:38.919Z,27.90
2018-04-19T14:13:09.698Z,28.20
2018-04-19T14:15:40.051Z,28.50
2018-04-19T14:18:10.877Z,28.80
2018-04-19T14:20:41.779Z,28.90
2018-04-19T14:23:12.407Z,29.10
2018-04-19T14:25:42.775Z,29.30
2018-04-19T14:28:13.456Z,29.10
2018-04-19T14:30:44.029Z,28.70
2018-04-19T14:33:14.399Z,28.60
2018-04-19T14:35:45.537Z,28.30
2018-04-19T14:38:16.259Z,28.20
2018-04-19T14:40:47.063Z,28.00
2018-04-19T14:43:17.930Z,27.70
2018-04-19T14:45:48.857Z,27.70
2018-04-19T14:48:19.527Z,27.70
2018-04-19T14:50:50.199Z,27.60
2018-04-19T14:53:20.611Z,27.30
2018-04-19T14:55:51.269Z,27.20
2018-04-19T14:58:21.930Z,27.20
2018-04-19T15:00:52.726Z,27.20
2018-04-19T15:03:23.374Z,27.20
2018-04-19T15:05:55.259Z,27.50
2018-04-19T15:08:26.187Z,27.50
2018-04-19T15:10:57.817Z,27.40
2018-04-19T15:13:29.801Z,27.50
2018-04-19T15:16:00.421Z,27.50
2018-04-19T15:18:31.055Z,27.60
2018-04-19T15:21:01.911Z,27.40
2018-04-19T15:23:32.329Z,27.30
2018-04-19T15:26:03.219Z,27.10
2018-04-19T15:28:33.891Z,26.60
2018-04-19T15:31:04.563Z,26.60
2018-04-19T15:33:35.239Z,26.90
2018-04-19T15:36:05.279Z,27.30
2018-04-19T15:38:35.630Z,27.40
2018-04-19T15:41:06.317Z,27.60
2018-04-19T15:43:36.981Z,27.20
2018-04-19T15:46:08.583Z,27.40
2018-04-19T15:48:39.240Z,27.30
2018-04-19T15:51:10.094Z,27.00
2018-04-19T15:53:40.951Z,26.70
2018-04-19T15:56:11.600Z,26.30
2018-04-19T15:58:42.263Z,26.30
2018-04-19T16:01:12.630Z,26.50
2018-04-19T16:03:44.125Z,26.60
2018-04-19T16:06:14.815Z,26.70
2018-04-19T16:08:45.993Z,26.40
2018-04-19T16:11:16.446Z,26.50
2018-04-19T16:13:47.271Z,26.40
2018-04-19T16:16:17.937Z,26.50
2018-04-19T16:18:48.775Z,26.60
2018-04-19T16:21:19.479Z,26.60
2018-04-19T16:23:50.955Z,25.90
2018-04-19T16:26:21.775Z,25.90
2018-04-19T16:28:52.454Z,25.70
2018-04-19T16:31:23.973Z,25.70
2018-04-19T16:33:55.458Z,25.70
2018-04-19T16:36:26.860Z,25.70
2018-04-19T16:38:57.417Z,25.70
2018-04-19T16:41:28.090Z,25.40
2018-04-19T16:44:00.147Z,25.00
2018-04-19T16:46:31.590Z,24.30
2018-04-19T16:49:02.340Z,24.30
2018-04-19T16:51:32.972Z,23.90
2018-04-19T16:54:04.335Z,23.50
2018-04-19T16:56:35.843Z,22.50
2018-04-19T16:59:06.528Z,22.50
2018-04-19T17:01:37.463Z,22.10
2018-04-19T17:04:08.736Z,21.80
2018-04-19T17:06:39.374Z,21.60
2018-04-19T17:09:10.265Z,21.40
2018-04-19T17:11:41.413Z,21.30
2018-04-19T17:14:12.072Z,21.00
2018-04-19T17:16:42.736Z,20.90
2018-04-19T17:19:13.896Z,20.80
2018-04-19T17:21:44.639Z,20.60
2018-04-19T17:24:15.114Z,20.50
2018-04-19T17:26:45.787Z,20.40
2018-04-19T17:29:16.281Z,20.20
2018-04-19T17:31:46.972Z,20.10
2018-04-19T17:34:17.920Z,19.90
2018-04-19T17:36:50.179Z,19.70
2018-04-19T17:39:20.903Z,19.60
2018-04-19T17:41:51.560Z,19.60
2018-04-19T17:44:21.678Z,19.50
2018-04-19T17:46:52.565Z,19.50
2018-04-19T17:49:23.223Z,19.30
2018-04-19T17:51:54.099Z,19.10
2018-04-19T17:54:24.764Z,19.10
2018-04-19T17:56:56.078Z,19.00
2018-04-19T17:59:26.404Z,18.90
2018-04-19T18:01:56.647Z,18.90
2018-04-19T18:04:26.753Z,18.90
2018-04-19T18:06:57.607Z,18.70
2018-04-19T18:09:28.460Z,18.40
2018-04-19T18:11:59.242Z,18.40
2018-04-19T18:14:30.095Z,18.10
2018-04-19T18:17:00.958Z,18.00
2018-04-19T18:19:31.836Z,17.90
2018-04-19T18:22:01.958Z,17.90
2018-04-19T18:24:32.429Z,17.80
2018-04-19T18:27:02.531Z,17.60
2018-04-19T18:29:32.593Z,17.30
2018-04-19T18:32:02.850Z,17.00
2018-04-19T18:34:32.975Z,16.70
2018-04-19T18:37:03.200Z,16.40
2018-04-19T18:39:33.387Z,16.10
2018-04-19T18:42:03.543Z,15.90
2018-04-19T18:44:33.700Z,15.70
2018-04-19T18:47:04.257Z,15.50
2018-04-19T18:49:34.046Z,15.50
2018-04-19T18:52:04.178Z,15.50
2018-04-19T18:54:34.333Z,15.50
2018-04-19T18:57:04.454Z,15.50
2018-04-19T18:59:34.630Z,15.60
2018-04-19T19:02:05.020Z,15.80
2018-04-19T19:04:35.141Z,16.00
2018-04-19T19:07:05.251Z,16.00
2018-04-19T19:09:35.383Z,16.10
2018-04-19T19:12:05.146Z,16.30
2018-04-19T19:14:36.258Z,16.50
2018-04-19T19:17:23.166Z,16.40
2018-04-19T19:20:09.934Z,16.50
2018-04-19T19:22:40.022Z,16.60
2018-04-19T19:25:10.128Z,16.50
2018-04-19T19:27:40.356Z,16.50
2018-04-19T19:30:10.720Z,16.40
2018-04-19T19:32:40.832Z,16.30
2018-04-19T19:35:10.700Z,16.20
2018-04-19T19:37:40.655Z,16.00
2018-04-19T19:40:10.806Z,16.00
2018-04-19T19:42:41.107Z,15.80
2018-04-19T19:45:11.238Z,15.70
2018-04-19T19:47:41.931Z,15.70
2018-04-19T19:50:12.749Z,15.70
2018-04-19T19:52:42.941Z,15.80
2018-04-19T19:55:13.008Z,15.90
2018-04-19T19:57:42.881Z,15.80
2018-04-19T20:00:13.307Z,15.60
2018-04-19T20:02:43.513Z,15.40
2018-04-19T20:05:14.594Z,15.00
2018-04-19T20:07:44.721Z,15.10
2018-04-19T20:10:15.619Z,15.20
2018-04-19T20:12:46.804Z,15.20
2018-04-19T20:15:16.951Z,15.30
2018-04-19T20:17:47.156Z,15.30
2018-04-19T20:20:17.416Z,15.30
2018-04-19T20:22:48.275Z,15.10
2018-04-19T20:25:19.420Z,15.10
2018-04-19T20:27:50.678Z,15.00
2018-04-19T20:30:20.993Z,14.90
2018-04-19T20:32:53.084Z,14.80
2018-04-19T20:35:23.168Z,14.80
2018-04-19T20:37:53.623Z,14.80
2018-04-19T20:40:23.820Z,14.80
2018-04-19T20:42:54.974Z,14.80
2018-04-19T20:45:25.075Z,14.80
2018-04-19T20:47:55.199Z,14.70
2018-04-19T20:50:25.516Z,14.60
2018-04-19T20:52:55.623Z,14.50
2018-04-19T20:55:26.831Z,14.50
2018-04-19T20:57:57.148Z,14.40
2018-04-19T21:00:27.229Z,14.30
2018-04-19T21:02:57.353Z,14.30
2018-04-19T21:05:28.188Z,14.10
2018-04-19T21:07:58.531Z,14.10
2018-04-19T21:10:28.607Z,14.20
2018-04-19T21:12:59.350Z,14.50
2018-04-19T21:15:29.553Z,14.50
2018-04-19T21:18:00.365Z,14.50
2018-04-19T21:20:30.578Z,14.40
2018-04-19T21:23:00.843Z,14.20
2018-04-19T21:25:31.161Z,14.00
2018-04-19T21:28:01.426Z,13.90
2018-04-19T21:30:31.557Z,13.80
2018-04-19T21:33:02.840Z,13.60
2018-04-19T21:35:33.211Z,13.60
2018-04-19T21:38:03.322Z,13.50
2018-04-19T21:40:33.670Z,13.30
2018-04-19T21:43:04.755Z,13.10
2018-04-19T21:45:34.727Z,13.00
2018-04-19T21:48:06.052Z,12.80
2018-04-19T21:50:38.039Z,12.70
2018-04-19T21:53:08.107Z,12.70
2018-04-19T21:55:38.578Z,12.60
2018-04-19T21:58:10.252Z,12.70
2018-04-19T22:00:40.518Z,12.70
2018-04-19T22:03:10.775Z,12.70
2018-04-19T22:05:41.062Z,12.80
2018-04-19T22:08:11.078Z,12.70
2018-04-19T22:10:41.191Z,12.70
2018-04-19T22:13:12.085Z,13.00
2018-04-19T22:15:42.393Z,13.00
2018-04-19T22:18:12.511Z,13.00
2018-04-19T22:20:42.799Z,13.00
2018-04-19T22:23:12.959Z,13.20
2018-04-19T22:25:43.056Z,13.60
2018-04-19T22:28:13.495Z,13.80
2018-04-19T22:30:43.603Z,13.90
2018-04-19T22:33:13.730Z,13.90
2018-04-19T22:35:44.105Z,14.00
2018-04-19T22:38:14.199Z,13.90
2018-04-19T22:40:44.487Z,14.00
2018-04-19T22:43:14.584Z,14.10
2018-04-19T22:45:45.692Z,14.10
2018-04-19T22:48:15.222Z,14.00
2018-04-19T22:50:45.309Z,13.90
2018-04-19T22:53:15.408Z,13.90
2018-04-19T22:55:45.729Z,13.70
2018-04-19T22:58:16.004Z,13.60
2018-04-19T23:00:46.141Z,13.50
2018-04-19T23:03:16.405Z,13.40
2018-04-19T23:05:47.254Z,12.90
2018-04-19T23:08:17.391Z,12.90
2018-04-19T23:10:47.743Z,12.80
2018-04-19T23:13:17.871Z,12.70
2018-04-19T23:15:48.116Z,12.90
2018-04-19T23:18:18.244Z,13.00
2018-04-19T23:20:49.443Z,13.10
2018-04-19T23:23:19.602Z,13.00
2018-04-19T23:25:49.916Z,13.20
2018-04-19T23:28:20.239Z,13.40
2018-04-19T23:30:50.324Z,13.40
2018-04-19T23:33:20.439Z,13.40
2018-04-19T23:35:50.811Z,13.20
2018-04-19T23:38:20.923Z,13.10
2018-04-19T23:40:51.193Z,12.90
2018-04-19T23:43:21.785Z,12.70
2018-04-19T23:45:52.828Z,12.40
2018-04-19T23:48:25.347Z,12.40
2018-04-19T23:50:55.434Z,12.40
2018-04-19T23:53:25.779Z,12.40
2018-04-19T23:55:55.655Z,12.20
2018-04-19T23:58:25.742Z,12.30
